createdAt,value
2023-05-09T00:00:43.826Z,26.05
2023-05-09T00:01:43.885Z,26.06
2023-05-09T00:02:43.874Z,26.07
2023-05-09T00:03:43.837Z,26.06
2023-05-09T00:04:43.920Z,26.03
2023-05-09T00:05:43.838Z,26.03
2023-05-09T00:06:43.852Z,26.05
2023-05-09T00:07:43.852Z,26.05
2023-05-09T00:08:43.860Z,26.06
2023-05-09T00:09:43.868Z,26.07
2023-05-09T00:10:43.854Z,26.07
2023-05-09T00:11:43.933Z,26.07
2023-05-09T00:12:43.869Z,26.05
2023-05-09T00:13:43.806Z,26.05
2023-05-09T00:14:43.793Z,26.05
2023-05-09T00:15:43.778Z,26.03
2023-05-09T00:16:43.794Z,26.07
2023-05-09T00:17:43.812Z,26.06
2023-05-09T00:18:43.754Z,26.05
2023-05-09T00:19:43.713Z,26.06
2023-05-09T00:20:43.715Z,26.05
2023-05-09T00:21:43.700Z,26.06
2023-05-09T00:22:43.685Z,26.05
2023-05-09T00:23:43.681Z,26.05
2023-05-09T00:24:43.651Z,26.05
2023-05-09T00:25:43.650Z,26.05
2023-05-09T00:26:43.643Z,26.05
2023-05-09T00:27:43.701Z,26.02
2023-05-09T00:28:43.621Z,26.03
2023-05-09T00:29:43.606Z,26.03
2023-05-09T00:30:43.609Z,26.03
2023-05-09T00:31:43.587Z,26.03
2023-05-09T00:32:43.593Z,26.05
2023-05-09T00:33:43.524Z,26.03
2023-05-09T00:34:43.515Z,26.03
2023-05-09T00:35:43.507Z,26.03
2023-05-09T00:36:43.535Z,26.02
2023-05-09T00:37:43.497Z,26.02
2023-05-09T00:38:43.510Z,26.02
2023-05-09T00:39:43.467Z,26.03
2023-05-09T00:40:43.472Z,26.03
2023-05-09T00:41:43.426Z,26.05
2023-05-09T00:42:43.433Z,26.05
2023-05-09T00:43:43.491Z,26.02
2023-05-09T00:44:43.382Z,26.02
2023-05-09T00:45:43.400Z,26.02
2023-05-09T00:46:43.370Z,26.02
2023-05-09T00:47:43.349Z,26.03
2023-05-09T00:48:43.330Z,26.02
2023-05-09T00:49:43.301Z,26.02
2023-05-09T00:50:43.274Z,26.02
2023-05-09T00:51:43.248Z,26.00
2023-05-09T00:52:43.237Z,26.02
2023-05-09T00:53:43.242Z,26.03
2023-05-09T00:54:43.219Z,26.00
2023-05-09T00:55:43.198Z,26.03
2023-05-09T00:56:43.194Z,26.00
2023-05-09T00:57:43.181Z,26.02
2023-05-09T00:58:43.175Z,26.00
2023-05-09T00:59:43.264Z,26.00
2023-05-09T01:00:43.201Z,26.02
2023-05-09T01:01:43.215Z,26.00
2023-05-09T01:02:43.291Z,26.00
2023-05-09T01:03:43.354Z,25.99
2023-05-09T01:04:44.115Z,26.02
2023-05-09T01:05:43.129Z,26.02
2023-05-09T01:06:43.146Z,25.99
2023-05-09T01:07:43.100Z,26.00
2023-05-09T01:08:43.131Z,26.02
2023-05-09T01:09:43.104Z,26.00
2023-05-09T01:10:43.112Z,26.00
2023-05-09T01:11:43.076Z,26.00
2023-05-09T01:12:43.084Z,26.00
2023-05-09T01:13:43.032Z,26.02
2023-05-09T01:14:43.060Z,26.00
2023-05-09T01:15:43.106Z,25.99
2023-05-09T01:16:43.010Z,25.99
2023-05-09T01:17:43.004Z,25.99
2023-05-09T01:18:42.979Z,26.00
2023-05-09T01:19:42.944Z,26.00
2023-05-09T01:20:42.922Z,25.98
2023-05-09T01:21:42.901Z,26.00
2023-05-09T01:22:42.905Z,26.02
2023-05-09T01:23:42.880Z,26.00
2023-05-09T01:24:42.878Z,25.99
2023-05-09T01:25:42.852Z,25.98
2023-05-09T01:26:42.842Z,25.99
2023-05-09T01:27:42.825Z,25.99
2023-05-09T01:28:42.817Z,25.99
2023-05-09T01:29:42.814Z,25.99
2023-05-09T01:30:42.811Z,26.00
2023-05-09T01:31:42.899Z,25.96
2023-05-09T01:32:42.869Z,26.00
2023-05-09T01:33:42.762Z,26.00
2023-05-09T01:34:42.744Z,25.96
2023-05-09T01:35:42.739Z,26.02
2023-05-09T01:36:42.706Z,26.00
2023-05-09T01:37:42.723Z,26.00
2023-05-09T01:38:42.683Z,25.99
2023-05-09T01:39:42.697Z,25.99
2023-05-09T01:40:42.662Z,25.98
2023-05-09T01:41:42.672Z,26.00
2023-05-09T01:42:42.670Z,25.98
2023-05-09T01:43:42.722Z,25.99
2023-05-09T01:44:42.634Z,25.99
2023-05-09T01:45:42.616Z,25.99
2023-05-09T01:46:42.628Z,25.98
2023-05-09T01:47:42.710Z,25.99
2023-05-09T01:48:42.568Z,25.99
2023-05-09T01:49:42.557Z,25.96
2023-05-09T01:50:42.563Z,25.98
2023-05-09T01:51:43.956Z,25.98
2023-05-09T01:52:42.559Z,25.98
2023-05-09T01:53:42.537Z,25.98
2023-05-09T01:54:42.542Z,25.99
2023-05-09T01:55:42.531Z,25.95
2023-05-09T01:56:42.539Z,25.98
2023-05-09T01:57:42.522Z,25.99
2023-05-09T01:58:42.525Z,25.98
2023-05-09T01:59:42.495Z,25.98
2023-05-09T02:00:42.543Z,25.98
2023-05-09T02:01:42.489Z,25.96
2023-05-09T02:02:42.622Z,25.96
2023-05-09T02:03:42.575Z,25.96
2023-05-09T02:04:42.500Z,25.96
2023-05-09T02:05:42.476Z,25.96
2023-05-09T02:06:42.469Z,25.95
2023-05-09T02:07:42.446Z,25.96
2023-05-09T02:08:42.455Z,25.96
2023-05-09T02:09:42.426Z,25.98
2023-05-09T02:10:42.426Z,25.96
2023-05-09T02:11:42.420Z,25.96
2023-05-09T02:12:42.470Z,25.98
2023-05-09T02:13:42.396Z,25.96
2023-05-09T02:14:42.378Z,25.96
2023-05-09T02:15:42.373Z,25.98
2023-05-09T02:16:42.371Z,25.95
2023-05-09T02:17:42.462Z,25.93
2023-05-09T02:18:42.391Z,25.98
2023-05-09T02:19:42.535Z,25.96
2023-05-09T02:20:42.397Z,25.98
2023-05-09T02:21:42.424Z,25.96
2023-05-09T02:22:42.407Z,25.95
2023-05-09T02:23:42.418Z,25.95
2023-05-09T02:24:42.434Z,25.96
2023-05-09T02:25:42.449Z,25.98
2023-05-09T02:26:42.482Z,25.96
2023-05-09T02:27:42.509Z,25.96
2023-05-09T02:28:42.532Z,25.93
2023-05-09T02:29:42.560Z,25.95
2023-05-09T02:30:42.569Z,25.95
2023-05-09T02:31:42.605Z,25.96
2023-05-09T02:32:42.662Z,25.98
2023-05-09T02:33:42.647Z,25.93
2023-05-09T02:34:42.704Z,25.96
2023-05-09T02:35:42.772Z,25.95
2023-05-09T02:36:42.746Z,25.93
2023-05-09T02:37:42.751Z,25.95
2023-05-09T02:38:42.811Z,25.92
2023-05-09T02:39:42.763Z,25.92
2023-05-09T02:40:42.826Z,25.95
2023-05-09T02:41:42.828Z,25.95
2023-05-09T02:42:42.833Z,25.95
2023-05-09T02:43:42.841Z,25.93
2023-05-09T02:44:42.834Z,25.95
2023-05-09T02:45:42.911Z,25.98
2023-05-09T02:46:42.842Z,25.98
2023-05-09T02:47:42.872Z,25.96
2023-05-09T02:48:42.846Z,25.93
2023-05-09T02:49:42.858Z,25.95
2023-05-09T02:50:42.924Z,25.93
2023-05-09T02:51:42.972Z,25.95
2023-05-09T02:52:42.882Z,25.95
2023-05-09T02:53:42.912Z,25.95
2023-05-09T02:54:42.899Z,25.95
2023-05-09T02:55:42.926Z,25.95
2023-05-09T02:56:42.914Z,25.95
2023-05-09T02:57:42.941Z,25.98
2023-05-09T02:58:42.947Z,25.92
2023-05-09T02:59:42.937Z,25.95
2023-05-09T03:00:42.957Z,25.95
2023-05-09T03:01:42.969Z,25.95
2023-05-09T03:02:42.996Z,25.95
2023-05-09T03:03:43.038Z,25.93
2023-05-09T03:04:42.960Z,25.92
2023-05-09T03:05:42.987Z,25.95
2023-05-09T03:06:43.010Z,25.93
2023-05-09T03:07:43.067Z,25.95
2023-05-09T03:08:43.011Z,25.93
2023-05-09T03:09:42.991Z,25.93
2023-05-09T03:10:43.038Z,25.95
2023-05-09T03:11:43.019Z,25.93
2023-05-09T03:12:43.070Z,25.92
2023-05-09T03:13:43.046Z,25.93
2023-05-09T03:14:43.076Z,25.95
2023-05-09T03:15:43.089Z,25.93
2023-05-09T03:16:43.097Z,25.95
2023-05-09T03:17:43.150Z,25.93
2023-05-09T03:18:43.130Z,25.91
2023-05-09T03:19:43.123Z,25.92
2023-05-09T03:20:43.134Z,25.93
2023-05-09T03:21:43.134Z,25.93
2023-05-09T03:22:43.154Z,25.93
2023-05-09T03:23:43.246Z,25.93
2023-05-09T03:24:43.146Z,25.93
2023-05-09T03:25:43.155Z,25.92
2023-05-09T03:26:43.133Z,25.91
2023-05-09T03:27:43.176Z,25.92
2023-05-09T03:28:43.150Z,25.92
2023-05-09T03:29:43.175Z,25.92
2023-05-09T03:30:43.171Z,25.92
2023-05-09T03:31:43.290Z,25.92
2023-05-09T03:32:43.270Z,25.91
2023-05-09T03:33:43.206Z,25.91
2023-05-09T03:34:43.196Z,25.92
2023-05-09T03:35:43.201Z,25.92
2023-05-09T03:36:43.208Z,25.91
2023-05-09T03:37:43.207Z,25.92
2023-05-09T03:38:43.219Z,25.91
2023-05-09T03:39:43.299Z,25.92
2023-05-09T03:40:43.221Z,25.92
2023-05-09T03:41:43.209Z,25.89
2023-05-09T03:42:43.219Z,25.92
2023-05-09T03:43:43.210Z,25.91
2023-05-09T03:44:43.216Z,25.92
2023-05-09T03:45:43.211Z,25.89
2023-05-09T03:46:43.266Z,25.91
2023-05-09T03:47:43.206Z,25.89
2023-05-09T03:48:43.233Z,25.91
2023-05-09T03:49:43.202Z,25.93
2023-05-09T03:50:43.241Z,25.91
2023-05-09T03:51:43.207Z,25.91
2023-05-09T03:52:43.262Z,25.89
2023-05-09T03:53:43.259Z,25.91
2023-05-09T03:54:43.287Z,25.92
2023-05-09T03:55:43.366Z,25.92
2023-05-09T03:56:43.291Z,25.92
2023-05-09T03:57:43.282Z,25.88
2023-05-09T03:58:43.283Z,25.89
2023-05-09T03:59:43.322Z,25.89
2023-05-09T04:00:43.290Z,25.89
2023-05-09T04:01:43.305Z,25.91
2023-05-09T04:02:43.320Z,25.91
2023-05-09T04:03:43.453Z,25.89
2023-05-09T04:04:43.295Z,25.91
2023-05-09T04:05:43.305Z,25.91
2023-05-09T04:06:43.302Z,25.89
2023-05-09T04:07:43.318Z,25.89
2023-05-09T04:08:43.308Z,25.88
2023-05-09T04:09:43.319Z,25.88
2023-05-09T04:10:43.281Z,25.91
2023-05-09T04:11:43.398Z,25.89
2023-05-09T04:12:43.302Z,25.89
2023-05-09T04:13:43.329Z,25.89
2023-05-09T04:14:43.304Z,25.89
2023-05-09T04:15:43.295Z,25.88
2023-05-09T04:16:43.277Z,25.88
2023-05-09T04:17:43.353Z,25.91
2023-05-09T04:18:43.255Z,25.88
2023-05-09T04:19:43.269Z,25.89
2023-05-09T04:20:43.241Z,25.89
2023-05-09T04:21:43.236Z,25.88
2023-05-09T04:22:45.398Z,25.88
2023-05-09T04:23:43.189Z,25.88
2023-05-09T04:24:43.154Z,25.88
2023-05-09T04:25:43.101Z,25.87
2023-05-09T04:26:43.068Z,25.89
2023-05-09T04:27:43.109Z,25.88
2023-05-09T04:28:42.976Z,25.87
2023-05-09T04:29:42.936Z,25.88
2023-05-09T04:30:42.909Z,25.87
2023-05-09T04:31:42.998Z,25.88
2023-05-09T04:32:42.841Z,25.87
2023-05-09T04:33:42.773Z,25.91
2023-05-09T04:34:42.726Z,25.88
2023-05-09T04:35:42.668Z,25.88
2023-05-09T04:36:42.623Z,25.88
2023-05-09T04:37:42.575Z,25.85
2023-05-09T04:38:42.540Z,25.88
2023-05-09T04:39:42.484Z,25.89
2023-05-09T04:40:42.438Z,25.89
2023-05-09T04:41:43.393Z,25.88
2023-05-09T04:42:42.348Z,25.87
2023-05-09T04:43:42.413Z,25.88
2023-05-09T04:44:42.274Z,25.88
2023-05-09T04:45:42.224Z,25.89
2023-05-09T04:46:42.247Z,25.89
2023-05-09T04:47:42.189Z,25.87
2023-05-09T04:48:42.091Z,25.89
2023-05-09T04:49:42.090Z,25.87
2023-05-09T04:50:41.991Z,25.89
2023-05-09T04:51:41.955Z,25.87
2023-05-09T04:52:41.906Z,25.88
2023-05-09T04:53:41.867Z,25.87
2023-05-09T04:54:41.850Z,25.91
2023-05-09T04:55:41.820Z,25.89
2023-05-09T04:56:41.802Z,25.88
2023-05-09T04:57:41.799Z,25.88
2023-05-09T04:58:41.758Z,25.88
2023-05-09T04:59:41.826Z,25.89
2023-05-09T05:00:41.719Z,25.88
2023-05-09T05:01:41.750Z,25.88
2023-05-09T05:02:41.731Z,25.88
2023-05-09T05:03:41.701Z,25.88
2023-05-09T05:04:41.756Z,25.88
2023-05-09T05:05:41.817Z,25.88
2023-05-09T05:06:41.723Z,25.88
2023-05-09T05:07:41.698Z,25.87
2023-05-09T05:08:41.719Z,25.88
2023-05-09T05:09:41.699Z,25.88
2023-05-09T05:10:41.688Z,25.88
2023-05-09T05:11:47.494Z,25.88
2023-05-09T05:12:42.688Z,25.88
2023-05-09T05:13:41.606Z,25.89
2023-05-09T05:14:41.584Z,25.89
2023-05-09T05:15:41.616Z,25.89
2023-05-09T05:16:41.521Z,25.87
2023-05-09T05:17:41.514Z,25.89
2023-05-09T05:18:41.417Z,25.89
2023-05-09T05:19:41.365Z,25.92
2023-05-09T05:20:41.325Z,25.93
2023-05-09T05:21:41.285Z,25.93
2023-05-09T05:22:41.243Z,25.95
2023-05-09T05:23:41.185Z,25.99
2023-05-09T05:24:41.175Z,26.02
2023-05-09T05:25:41.143Z,26.03
2023-05-09T05:26:41.156Z,26.07
2023-05-09T05:27:41.153Z,26.12
2023-05-09T05:28:41.170Z,26.15
2023-05-09T05:29:41.169Z,26.10
2023-05-09T05:30:41.212Z,26.15
2023-05-09T05:31:41.331Z,26.17
2023-05-09T05:32:41.206Z,26.13
2023-05-09T05:33:41.219Z,26.15
2023-05-09T05:34:41.222Z,26.13
2023-05-09T05:35:41.261Z,26.12
2023-05-09T05:36:41.249Z,26.12
2023-05-09T05:37:41.275Z,26.13
2023-05-09T05:38:41.264Z,26.13
2023-05-09T05:39:41.287Z,26.10
2023-05-09T05:40:41.287Z,26.13
2023-05-09T05:41:41.305Z,26.12
2023-05-09T05:42:41.324Z,26.10
2023-05-09T05:43:41.324Z,26.10
2023-05-09T05:44:41.328Z,26.10
2023-05-09T05:45:41.374Z,26.10
2023-05-09T05:46:41.331Z,26.09
2023-05-09T05:47:41.430Z,26.09
2023-05-09T05:48:41.332Z,26.07
2023-05-09T05:49:42.230Z,26.07
2023-05-09T05:50:41.306Z,26.06
2023-05-09T05:51:41.315Z,26.09
2023-05-09T05:52:41.319Z,26.06
2023-05-09T05:53:41.305Z,26.06
2023-05-09T05:54:41.319Z,26.06
2023-05-09T05:55:41.306Z,26.06
2023-05-09T05:56:41.310Z,26.06
2023-05-09T05:57:41.311Z,26.05
2023-05-09T05:58:41.305Z,26.06
2023-05-09T05:59:41.305Z,26.06
2023-05-09T06:00:41.291Z,26.05
2023-05-09T06:01:41.457Z,26.03
2023-05-09T06:02:41.427Z,26.02
2023-05-09T06:03:41.512Z,26.03
2023-05-09T06:04:41.269Z,26.05
2023-05-09T06:05:41.261Z,26.05
2023-05-09T06:06:41.246Z,26.03
2023-05-09T06:07:41.223Z,26.03
2023-05-09T06:08:41.218Z,26.00
2023-05-09T06:09:41.227Z,26.02
2023-05-09T06:10:41.209Z,26.02
2023-05-09T06:11:41.224Z,26.00
2023-05-09T06:12:41.230Z,26.03
2023-05-09T06:13:41.210Z,26.02
2023-05-09T06:14:41.160Z,26.02
2023-05-09T06:15:41.189Z,26.00
2023-05-09T06:16:41.160Z,26.03
2023-05-09T06:17:41.135Z,26.03
2023-05-09T06:18:41.097Z,26.02
2023-05-09T06:19:41.164Z,26.02
2023-05-09T06:20:41.064Z,26.03
2023-05-09T06:21:41.126Z,26.03
2023-05-09T06:22:41.052Z,26.06
2023-05-09T06:23:51.003Z,26.02
2023-05-09T06:24:42.001Z,26.03
2023-05-09T06:25:40.956Z,26.06
2023-05-09T06:26:40.902Z,26.05
2023-05-09T06:27:40.883Z,26.05
2023-05-09T06:28:40.817Z,26.07
2023-05-09T06:29:40.775Z,26.09
2023-05-09T06:30:40.739Z,26.12
2023-05-09T06:31:40.740Z,26.12
2023-05-09T06:32:40.655Z,26.10
2023-05-09T06:33:40.607Z,26.13
2023-05-09T06:34:40.604Z,26.12
2023-05-09T06:35:40.740Z,26.15
2023-05-09T06:36:40.594Z,26.15
2023-05-09T06:37:40.606Z,26.15
2023-05-09T06:38:40.622Z,26.15
2023-05-09T06:39:40.609Z,26.13
2023-05-09T06:40:40.750Z,26.17
2023-05-09T06:41:40.644Z,26.17
2023-05-09T06:42:40.687Z,26.17
2023-05-09T06:43:40.695Z,26.16
2023-05-09T06:44:40.719Z,26.15
2023-05-09T06:45:40.742Z,26.13
2023-05-09T06:46:40.799Z,26.13
2023-05-09T06:47:40.804Z,26.16
2023-05-09T06:48:40.781Z,26.15
2023-05-09T06:49:40.790Z,26.13
2023-05-09T06:50:40.807Z,26.15
2023-05-09T06:51:40.907Z,26.13
2023-05-09T06:52:40.828Z,26.15
2023-05-09T06:53:40.853Z,26.15
2023-05-09T06:54:40.940Z,26.15
2023-05-09T06:55:40.880Z,26.13
2023-05-09T06:56:40.901Z,26.16
2023-05-09T06:57:40.953Z,26.16
2023-05-09T06:58:40.926Z,26.19
2023-05-09T06:59:40.980Z,26.16
2023-05-09T07:00:40.940Z,26.16
2023-05-09T07:01:41.111Z,26.15
2023-05-09T07:02:41.035Z,26.16
2023-05-09T07:03:40.992Z,26.16
2023-05-09T07:04:41.050Z,26.13
2023-05-09T07:05:41.016Z,26.15
2023-05-09T07:06:41.039Z,26.15
2023-05-09T07:07:41.142Z,26.13
2023-05-09T07:08:41.046Z,26.15
2023-05-09T07:09:41.055Z,26.15
2023-05-09T07:10:41.066Z,26.13
2023-05-09T07:11:41.082Z,26.15
2023-05-09T07:12:41.130Z,26.13
2023-05-09T07:13:41.126Z,26.15
2023-05-09T07:14:41.169Z,26.15
2023-05-09T07:15:42.968Z,26.15
2023-05-09T07:16:41.318Z,26.16
2023-05-09T07:17:41.229Z,26.15
2023-05-09T07:18:41.235Z,26.16
2023-05-09T07:19:41.240Z,26.19
2023-05-09T07:20:41.245Z,26.20
2023-05-09T07:21:41.241Z,26.26
2023-05-09T07:22:41.328Z,26.26
2023-05-09T07:23:41.362Z,26.25
2023-05-09T07:24:41.274Z,26.17
2023-05-09T07:25:41.268Z,26.10
2023-05-09T07:26:41.267Z,26.02
2023-05-09T07:27:41.318Z,25.96
2023-05-09T07:28:41.295Z,25.87
2023-05-09T07:29:41.328Z,25.78
2023-05-09T07:30:41.314Z,25.75
2023-05-09T07:31:41.361Z,25.75
2023-05-09T07:32:41.356Z,25.77
2023-05-09T07:33:41.358Z,25.84
2023-05-09T07:34:41.335Z,25.89
2023-05-09T07:35:41.318Z,25.93
2023-05-09T07:36:41.293Z,25.98
2023-05-09T07:37:42.283Z,26.05
2023-05-09T07:38:41.366Z,26.10
2023-05-09T07:39:41.458Z,26.15
2023-05-09T07:40:41.367Z,26.25
2023-05-09T07:41:41.393Z,26.32
2023-05-09T07:42:41.378Z,26.36
2023-05-09T07:43:41.385Z,26.40
2023-05-09T07:44:42.286Z,26.44
2023-05-09T07:45:41.452Z,26.48
2023-05-09T07:46:41.353Z,26.60
2023-05-09T07:47:41.368Z,26.61
2023-05-09T07:48:41.344Z,26.68
2023-05-09T07:49:41.321Z,26.77
2023-05-09T07:50:41.319Z,26.84
2023-05-09T07:51:41.304Z,26.92
2023-05-09T07:52:41.280Z,26.98
2023-05-09T07:53:41.221Z,26.99
2023-05-09T07:54:41.229Z,27.08
2023-05-09T07:55:41.260Z,27.09
2023-05-09T07:56:41.170Z,27.11
2023-05-09T07:57:41.813Z,27.13
2023-05-09T07:58:41.087Z,27.16
2023-05-09T07:59:41.117Z,27.19
2023-05-09T08:00:41.026Z,27.19
2023-05-09T08:01:40.979Z,27.21
2023-05-09T08:02:41.086Z,27.21
2023-05-09T08:03:40.941Z,27.26
2023-05-09T08:04:41.671Z,27.25
2023-05-09T08:05:40.846Z,27.26
2023-05-09T08:06:40.796Z,27.28
2023-05-09T08:07:40.764Z,27.28
2023-05-09T08:08:40.732Z,27.29
2023-05-09T08:09:40.708Z,27.28
2023-05-09T08:10:40.674Z,27.32
2023-05-09T08:11:41.382Z,27.30
2023-05-09T08:12:40.644Z,27.28
2023-05-09T08:13:40.576Z,27.29
2023-05-09T08:14:40.520Z,27.28
2023-05-09T08:15:40.590Z,27.29
2023-05-09T08:16:40.530Z,27.26
2023-05-09T08:17:40.539Z,27.22
2023-05-09T08:18:40.410Z,27.22
2023-05-09T08:19:40.395Z,27.13
2023-05-09T08:20:40.366Z,27.08
2023-05-09T08:21:40.472Z,27.06
2023-05-09T08:22:40.343Z,27.05
2023-05-09T08:23:40.470Z,26.99
2023-05-09T08:24:40.534Z,26.94
2023-05-09T08:25:40.261Z,26.87
2023-05-09T08:26:40.276Z,26.85
2023-05-09T08:27:40.325Z,26.85
2023-05-09T08:28:40.278Z,26.87
2023-05-09T08:29:40.215Z,26.90
2023-05-09T08:30:40.224Z,26.92
2023-05-09T08:31:40.189Z,26.92
2023-05-09T08:32:40.227Z,26.95
2023-05-09T08:33:41.970Z,26.98
2023-05-09T08:34:40.133Z,27.02
2023-05-09T08:35:40.084Z,27.06
2023-05-09T08:36:40.054Z,27.08
2023-05-09T08:37:40.006Z,27.12
2023-05-09T08:38:39.989Z,27.15
2023-05-09T08:39:39.953Z,27.18
2023-05-09T08:40:39.927Z,27.22
2023-05-09T08:41:39.878Z,27.24
2023-05-09T08:42:39.853Z,27.24
2023-05-09T08:43:39.892Z,27.28
2023-05-09T08:44:39.781Z,27.28
2023-05-09T08:45:39.755Z,27.29
2023-05-09T08:46:39.836Z,27.30
2023-05-09T08:47:39.760Z,27.38
2023-05-09T08:48:39.682Z,27.35
2023-05-09T08:49:39.653Z,27.36
2023-05-09T08:50:39.597Z,27.40
2023-05-09T08:51:39.572Z,27.40
2023-05-09T08:52:39.531Z,27.42
2023-05-09T08:53:39.523Z,27.42
2023-05-09T08:54:39.481Z,27.43
2023-05-09T08:55:39.473Z,27.46
2023-05-09T08:56:39.454Z,27.45
2023-05-09T08:57:39.421Z,27.49
2023-05-09T08:58:39.834Z,27.52
2023-05-09T08:59:39.466Z,27.52
2023-05-09T09:00:39.361Z,27.52
2023-05-09T09:01:39.330Z,27.56
2023-05-09T09:02:39.393Z,27.53
2023-05-09T09:03:39.302Z,27.56
2023-05-09T09:04:39.396Z,27.57
2023-05-09T09:05:41.322Z,27.57
2023-05-09T09:06:39.214Z,27.60
2023-05-09T09:07:39.149Z,27.61
2023-05-09T09:08:39.087Z,27.63
2023-05-09T09:09:39.057Z,27.66
2023-05-09T09:10:38.962Z,27.73
2023-05-09T09:11:39.077Z,27.77
2023-05-09T09:12:38.844Z,27.84
2023-05-09T09:13:38.776Z,27.91
2023-05-09T09:14:38.909Z,27.94
2023-05-09T09:15:38.720Z,28.03
2023-05-09T09:16:38.620Z,28.12
2023-05-09T09:17:39.408Z,28.11
2023-05-09T09:18:39.745Z,28.11
2023-05-09T09:19:38.499Z,28.08
2023-05-09T09:20:38.280Z,28.07
2023-05-09T09:21:38.233Z,28.09
2023-05-09T09:22:38.168Z,28.05
2023-05-09T09:23:38.109Z,28.05
2023-05-09T09:24:38.026Z,28.04
2023-05-09T09:25:37.971Z,28.01
2023-05-09T09:26:37.875Z,28.03
2023-05-09T09:27:38.356Z,28.03
2023-05-09T09:28:37.757Z,28.01
2023-05-09T09:29:37.708Z,28.00
2023-05-09T09:30:37.632Z,27.98
2023-05-09T09:31:37.740Z,28.01
2023-05-09T09:32:37.591Z,28.03
2023-05-09T09:33:37.441Z,28.03
2023-05-09T09:34:37.384Z,28.01
2023-05-09T09:35:37.313Z,28.03
2023-05-09T09:36:37.288Z,28.01
2023-05-09T09:37:37.277Z,28.01
2023-05-09T09:38:37.239Z,28.01
2023-05-09T09:39:37.238Z,28.04
2023-05-09T09:40:37.211Z,28.04
2023-05-09T09:41:37.179Z,28.05
2023-05-09T09:42:37.186Z,28.03
2023-05-09T09:43:37.138Z,28.05
2023-05-09T09:44:37.150Z,28.05
2023-05-09T09:45:37.144Z,28.07
2023-05-09T09:46:37.330Z,28.05
2023-05-09T09:47:37.174Z,28.05
2023-05-09T09:48:37.033Z,28.04
2023-05-09T09:49:37.052Z,28.08
2023-05-09T09:50:37.086Z,28.07
2023-05-09T09:51:37.021Z,28.04
2023-05-09T09:52:36.977Z,28.05
2023-05-09T09:53:36.975Z,28.03
2023-05-09T09:54:36.961Z,28.03
2023-05-09T09:55:36.924Z,28.03
2023-05-09T09:56:36.916Z,28.07
2023-05-09T09:57:36.891Z,28.05
2023-05-09T09:58:36.871Z,28.04
2023-05-09T09:59:36.850Z,28.03
2023-05-09T10:00:36.839Z,28.05
2023-05-09T10:01:36.872Z,28.05
2023-05-09T10:02:36.847Z,28.04
2023-05-09T10:03:36.883Z,28.05
2023-05-09T10:04:36.891Z,28.05
2023-05-09T10:05:36.729Z,28.04
2023-05-09T10:06:36.725Z,28.03
2023-05-09T10:07:36.708Z,28.04
2023-05-09T10:08:36.688Z,28.01
2023-05-09T10:09:36.672Z,27.97
2023-05-09T10:10:36.660Z,27.98
2023-05-09T10:11:36.640Z,27.97
2023-05-09T10:12:36.598Z,27.97
2023-05-09T10:13:36.602Z,27.94
2023-05-09T10:14:36.593Z,27.98
2023-05-09T10:15:49.317Z,27.96
2023-05-09T10:16:43.775Z,27.93
2023-05-09T10:17:37.650Z,27.93
2023-05-09T10:18:37.497Z,27.90
2023-05-09T10:19:36.434Z,27.86
2023-05-09T10:20:36.258Z,27.87
2023-05-09T10:21:36.787Z,27.86
2023-05-09T10:22:36.153Z,27.80
2023-05-09T10:23:36.088Z,27.81
2023-05-09T10:24:36.016Z,27.79
2023-05-09T10:25:35.963Z,27.74
2023-05-09T10:26:35.893Z,27.76
2023-05-09T10:27:35.854Z,27.71
2023-05-09T10:28:35.801Z,27.73
2023-05-09T10:29:35.721Z,27.69
2023-05-09T10:30:35.657Z,27.69
2023-05-09T10:31:35.621Z,27.69
2023-05-09T10:32:35.559Z,27.67
2023-05-09T10:33:35.481Z,27.67
2023-05-09T10:34:35.425Z,27.67
2023-05-09T10:35:35.385Z,27.66
2023-05-09T10:36:35.325Z,27.64
2023-05-09T10:37:35.283Z,27.63
2023-05-09T10:38:35.258Z,27.60
2023-05-09T10:39:35.228Z,27.60
2023-05-09T10:40:35.187Z,27.60
2023-05-09T10:41:35.157Z,27.57
2023-05-09T10:42:35.128Z,27.56
2023-05-09T10:43:36.695Z,27.56
2023-05-09T10:44:35.082Z,27.56
2023-05-09T10:45:35.037Z,27.52
2023-05-09T10:46:35.090Z,27.52
2023-05-09T10:47:35.008Z,27.50
2023-05-09T10:48:34.941Z,27.50
2023-05-09T10:49:36.354Z,27.49
2023-05-09T10:50:34.852Z,27.49
2023-05-09T10:51:34.893Z,27.46
2023-05-09T10:52:34.772Z,27.46
2023-05-09T10:53:34.736Z,27.45
2023-05-09T10:54:34.698Z,27.43
2023-05-09T10:55:34.720Z,27.46
2023-05-09T10:56:34.647Z,27.45
2023-05-09T10:57:34.582Z,27.45
2023-05-09T10:58:34.558Z,27.43
2023-05-09T10:59:34.525Z,27.42
2023-05-09T11:00:34.491Z,27.43
2023-05-09T11:01:34.478Z,27.40
2023-05-09T11:02:34.429Z,27.39
2023-05-09T11:03:34.445Z,27.42
2023-05-09T11:04:34.362Z,27.39
2023-05-09T11:05:34.292Z,27.39
2023-05-09T11:06:34.275Z,27.36
2023-05-09T11:07:34.308Z,27.38
2023-05-09T11:08:34.206Z,27.33
2023-05-09T11:09:34.158Z,27.33
2023-05-09T11:10:34.119Z,27.32
2023-05-09T11:11:34.057Z,27.30
2023-05-09T11:12:34.021Z,27.30
2023-05-09T11:13:34.032Z,27.33
2023-05-09T11:14:33.962Z,27.29
2023-05-09T11:15:33.911Z,27.32
2023-05-09T11:16:33.992Z,27.30
2023-05-09T11:17:33.878Z,27.29
2023-05-09T11:18:33.842Z,27.26
2023-05-09T11:19:33.803Z,27.29
2023-05-09T11:20:33.770Z,27.30
2023-05-09T11:21:33.745Z,27.26
2023-05-09T11:22:33.707Z,27.29
2023-05-09T11:23:33.788Z,27.26
2023-05-09T11:24:33.659Z,27.28
2023-05-09T11:25:33.619Z,27.28
2023-05-09T11:26:33.628Z,27.28
2023-05-09T11:27:33.565Z,27.26
2023-05-09T11:28:33.537Z,27.26
2023-05-09T11:29:33.546Z,27.26
2023-05-09T11:30:33.434Z,27.24
2023-05-09T11:31:33.499Z,27.25
2023-05-09T11:32:33.365Z,27.26
2023-05-09T11:33:33.371Z,27.24
2023-05-09T11:34:33.896Z,27.25
2023-05-09T11:35:33.279Z,27.24
2023-05-09T11:36:33.243Z,27.26
2023-05-09T11:37:33.207Z,27.22
2023-05-09T11:38:33.149Z,27.22
2023-05-09T11:39:33.238Z,27.21
2023-05-09T11:40:33.094Z,27.22
2023-05-09T11:41:33.062Z,27.21
2023-05-09T11:42:33.014Z,27.24
2023-05-09T11:43:33.824Z,27.19
2023-05-09T11:44:32.941Z,27.22
2023-05-09T11:45:33.208Z,27.22
2023-05-09T11:46:33.427Z,27.19
2023-05-09T11:47:32.927Z,27.18
2023-05-09T11:48:32.825Z,27.21
2023-05-09T11:49:32.862Z,27.16
2023-05-09T11:50:32.771Z,27.19
2023-05-09T11:51:32.760Z,27.19
2023-05-09T11:52:32.711Z,27.19
2023-05-09T11:53:32.706Z,27.16
2023-05-09T11:54:32.667Z,27.16
2023-05-09T11:55:32.793Z,27.15
2023-05-09T11:56:32.637Z,27.16
2023-05-09T11:57:32.649Z,27.15
2023-05-09T11:58:32.575Z,27.13
2023-05-09T11:59:32.568Z,27.15
2023-05-09T12:00:32.521Z,27.13
2023-05-09T12:01:32.512Z,27.15
2023-05-09T12:02:32.519Z,27.13
2023-05-09T12:03:32.546Z,27.15
2023-05-09T12:04:32.490Z,27.13
2023-05-09T12:05:32.422Z,27.13
2023-05-09T12:06:32.368Z,27.11
2023-05-09T12:07:33.826Z,27.12
2023-05-09T12:08:32.368Z,27.12
2023-05-09T12:09:32.314Z,27.09
2023-05-09T12:10:32.285Z,27.11
2023-05-09T12:11:32.514Z,27.08
2023-05-09T12:12:32.196Z,27.09
2023-05-09T12:13:33.846Z,27.05
2023-05-09T12:14:32.118Z,27.08
2023-05-09T12:15:32.060Z,27.09
2023-05-09T12:16:32.049Z,27.09
2023-05-09T12:17:31.985Z,27.08
2023-05-09T12:18:31.918Z,27.08
2023-05-09T12:19:31.847Z,27.09
2023-05-09T12:20:31.794Z,27.08
2023-05-09T12:21:31.751Z,27.05
2023-05-09T12:22:31.705Z,27.06
2023-05-09T12:23:31.663Z,27.08
2023-05-09T12:24:31.606Z,27.05
2023-05-09T12:25:31.573Z,27.05
2023-05-09T12:26:31.494Z,27.06
2023-05-09T12:27:31.556Z,27.05
2023-05-09T12:28:31.410Z,27.05
2023-05-09T12:29:31.385Z,27.03
2023-05-09T12:30:31.320Z,27.03
2023-05-09T12:31:31.344Z,27.02
2023-05-09T12:32:31.242Z,27.03
2023-05-09T12:33:31.231Z,27.02
2023-05-09T12:34:31.213Z,27.02
2023-05-09T12:35:31.197Z,27.03
2023-05-09T12:36:31.160Z,27.03
2023-05-09T12:37:31.142Z,27.03
2023-05-09T12:38:31.103Z,27.02
2023-05-09T12:39:31.081Z,27.02
2023-05-09T12:40:31.059Z,26.99
2023-05-09T12:41:39.070Z,27.01
2023-05-09T12:42:31.982Z,27.02
2023-05-09T12:43:31.026Z,27.01
2023-05-09T12:44:30.896Z,27.01
2023-05-09T12:45:30.834Z,27.02
2023-05-09T12:46:30.800Z,27.01
2023-05-09T12:47:30.758Z,27.03
2023-05-09T12:48:30.683Z,26.99
2023-05-09T12:49:30.645Z,27.03
2023-05-09T12:50:30.609Z,27.01
2023-05-09T12:51:30.543Z,27.01
2023-05-09T12:52:30.496Z,27.01